Terminal Aerodrome Forecast
Issued by NWS Louisville, KY

Home | Current Version | Previous Version | Text Only | Print | Product List | Glossary On
Versions: 1 2 3 4 5 6 7 8 9 10 11 12 13
000
FTUS43 KLMK 272300
TAFBWG
TAF
KBWG 272323Z 2800/2824 03005KT P6SM BKN080
     FM280600 07006KT P6SM BKN060
     FM281500 09006KT P6SM FEW020 BKN070=

USA.gov is the U.S. government's official web portal to all federal, state and local government web resources and services.